sensor_id;sensor_type;location;lat;lon;timestamp;P1;durP1;ratioP1;P2;durP2;ratioP2
79128;SDS011;68529;43.286;23.360;2024-02-14T00:00:34;5.40;;;3.70;;
79128;SDS011;68529;43.286;23.360;2024-02-14T00:03:00;5.30;;;4.20;;
79128;SDS011;68529;43.286;23.360;2024-02-14T00:05:25;4.93;;;4.43;;
79128;SDS011;68529;43.286;23.360;2024-02-14T00:07:51;4.70;;;3.53;;
79128;SDS011;68529;43.286;23.360;2024-02-14T00:10:16;5.50;;;4.13;;
79128;SDS011;68529;43.286;23.360;2024-02-14T00:12:42;3.40;;;3.10;;
79128;SDS011;68529;43.286;23.360;2024-02-14T00:15:07;4.53;;;3.47;;
79128;SDS011;68529;43.286;23.360;2024-02-14T00:17:33;4.30;;;3.90;;
79128;SDS011;68529;43.286;23.360;2024-02-14T00:20:00;3.40;;;3.10;;
79128;SDS011;68529;43.286;23.360;2024-02-14T00:22:29;3.50;;;3.20;;
79128;SDS011;68529;43.286;23.360;2024-02-14T00:24:55;4.93;;;3.53;;
79128;SDS011;68529;43.286;23.360;2024-02-14T00:27:20;3.30;;;3.00;;
79128;SDS011;68529;43.286;23.360;2024-02-14T00:29:46;5.53;;;4.63;;
79128;SDS011;68529;43.286;23.360;2024-02-14T00:32:14;5.50;;;3.60;;
79128;SDS011;68529;43.286;23.360;2024-02-14T00:34:40;3.77;;;3.47;;
79128;SDS011;68529;43.286;23.360;2024-02-14T00:37:05;3.80;;;3.47;;
79128;SDS011;68529;43.286;23.360;2024-02-14T00:39:31;5.43;;;3.67;;
79128;SDS011;68529;43.286;23.360;2024-02-14T00:41:56;4.17;;;3.53;;
79128;SDS011;68529;43.286;23.360;2024-02-14T00:44:22;4.60;;;3.33;;
79128;SDS011;68529;43.286;23.360;2024-02-14T00:46:47;7.87;;;3.90;;
79128;SDS011;68529;43.286;23.360;2024-02-14T00:49:15;3.90;;;3.47;;
79128;SDS011;68529;43.286;23.360;2024-02-14T00:51:41;4.10;;;3.70;;
79128;SDS011;68529;43.286;23.360;2024-02-14T00:54:06;5.33;;;3.43;;
79128;SDS011;68529;43.286;23.360;2024-02-14T00:56:33;4.03;;;3.63;;
79128;SDS011;68529;43.286;23.360;2024-02-14T00:58:58;4.47;;;3.93;;
79128;SDS011;68529;43.286;23.360;2024-02-14T01:01:24;3.37;;;3.07;;
79128;SDS011;68529;43.286;23.360;2024-02-14T01:03:50;3.37;;;3.07;;
79128;SDS011;68529;43.286;23.360;2024-02-14T01:06:16;4.00;;;3.30;;
79128;SDS011;68529;43.286;23.360;2024-02-14T01:08:41;3.97;;;3.50;;
79128;SDS011;68529;43.286;23.360;2024-02-14T01:11:07;3.53;;;3.23;;
79128;SDS011;68529;43.286;23.360;2024-02-14T01:13:33;3.80;;;3.50;;
79128;SDS011;68529;43.286;23.360;2024-02-14T01:15:58;3.63;;;3.33;;
79128;SDS011;68529;43.286;23.360;2024-02-14T01:18:24;4.07;;;3.30;;
79128;SDS011;68529;43.286;23.360;2024-02-14T01:20:49;4.00;;;3.60;;
79128;SDS011;68529;43.286;23.360;2024-02-14T01:23:15;3.73;;;3.43;;
79128;SDS011;68529;43.286;23.360;2024-02-14T01:25:41;3.70;;;3.40;;
79128;SDS011;68529;43.286;23.360;2024-02-14T01:28:07;3.80;;;3.50;;
79128;SDS011;68529;43.286;23.360;2024-02-14T01:30:33;3.80;;;3.50;;
79128;SDS011;68529;43.286;23.360;2024-02-14T01:33:01;3.63;;;3.30;;
79128;SDS011;68529;43.286;23.360;2024-02-14T01:35:29;3.50;;;3.20;;
79128;SDS011;68529;43.286;23.360;2024-02-14T01:37:54;4.20;;;3.53;;
79128;SDS011;68529;43.286;23.360;2024-02-14T01:40:20;3.67;;;3.10;;
79128;SDS011;68529;43.286;23.360;2024-02-14T01:42:45;3.53;;;3.20;;
79128;SDS011;68529;43.286;23.360;2024-02-14T01:45:11;3.77;;;3.47;;
79128;SDS011;68529;43.286;23.360;2024-02-14T01:47:37;3.30;;;3.00;;
79128;SDS011;68529;43.286;23.360;2024-02-14T01:50:05;4.53;;;3.53;;
79128;SDS011;68529;43.286;23.360;2024-02-14T01:52:33;3.40;;;3.10;;
79128;SDS011;68529;43.286;23.360;2024-02-14T01:55:00;3.30;;;3.00;;
79128;SDS011;68529;43.286;23.360;2024-02-14T01:57:27;3.20;;;2.90;;
79128;SDS011;68529;43.286;23.360;2024-02-14T01:59:53;3.47;;;2.73;;
79128;SDS011;68529;43.286;23.360;2024-02-14T02:02:21;2.90;;;2.63;;
79128;SDS011;68529;43.286;23.360;2024-02-14T02:04:47;2.87;;;2.67;;
79128;SDS011;68529;43.286;23.360;2024-02-14T02:07:12;3.30;;;3.10;;
79128;SDS011;68529;43.286;23.360;2024-02-14T02:09:38;3.10;;;2.90;;
79128;SDS011;68529;43.286;23.360;2024-02-14T02:12:03;2.67;;;2.47;;
79128;SDS011;68529;43.286;23.360;2024-02-14T02:14:32;2.73;;;2.50;;
79128;SDS011;68529;43.286;23.360;2024-02-14T02:16:58;2.93;;;2.53;;
79128;SDS011;68529;43.286;23.360;2024-02-14T02:19:23;3.33;;;3.03;;
79128;SDS011;68529;43.286;23.360;2024-02-14T02:21:49;4.97;;;2.60;;
79128;SDS011;68529;43.286;23.360;2024-02-14T02:24:14;3.20;;;2.90;;
79128;SDS011;68529;43.286;23.360;2024-02-14T02:26:40;3.17;;;2.97;;
79128;SDS011;68529;43.286;23.360;2024-02-14T02:29:05;3.00;;;2.70;;
79128;SDS011;68529;43.286;23.360;2024-02-14T02:31:31;4.60;;;2.90;;
79128;SDS011;68529;43.286;23.360;2024-02-14T02:33:56;3.00;;;2.80;;
79128;SDS011;68529;43.286;23.360;2024-02-14T02:36:22;5.07;;;2.77;;
79128;SDS011;68529;43.286;23.360;2024-02-14T02:38:49;3.07;;;2.80;;
79128;SDS011;68529;43.286;23.360;2024-02-14T02:41:15;2.90;;;2.70;;
79128;SDS011;68529;43.286;23.360;2024-02-14T02:43:40;3.07;;;2.87;;
79128;SDS011;68529;43.286;23.360;2024-02-14T02:46:08;2.50;;;2.30;;
79128;SDS011;68529;43.286;23.360;2024-02-14T02:48:34;3.40;;;2.97;;
79128;SDS011;68529;43.286;23.360;2024-02-14T02:50:59;3.97;;;3.47;;
79128;SDS011;68529;43.286;23.360;2024-02-14T02:53:25;3.20;;;2.80;;
79128;SDS011;68529;43.286;23.360;2024-02-14T02:55:50;3.17;;;2.87;;
79128;SDS011;68529;43.286;23.360;2024-02-14T02:58:16;4.53;;;2.73;;
79128;SDS011;68529;43.286;23.360;2024-02-14T03:00:42;3.10;;;2.80;;
79128;SDS011;68529;43.286;23.360;2024-02-14T03:03:08;3.33;;;3.03;;
79128;SDS011;68529;43.286;23.360;2024-02-14T03:05:34;3.20;;;2.97;;
79128;SDS011;68529;43.286;23.360;2024-02-14T03:07:59;3.47;;;3.17;;
79128;SDS011;68529;43.286;23.360;2024-02-14T03:10:25;3.23;;;2.97;;
79128;SDS011;68529;43.286;23.360;2024-02-14T03:12:51;2.90;;;2.70;;
79128;SDS011;68529;43.286;23.360;2024-02-14T03:15:17;2.97;;;2.57;;
79128;SDS011;68529;43.286;23.360;2024-02-14T03:17:43;2.97;;;2.63;;
79128;SDS011;68529;43.286;23.360;2024-02-14T03:20:10;3.33;;;2.80;;
79128;SDS011;68529;43.286;23.360;2024-02-14T03:22:37;3.10;;;2.80;;
79128;SDS011;68529;43.286;23.360;2024-02-14T03:25:07;3.17;;;2.87;;
79128;SDS011;68529;43.286;23.360;2024-02-14T03:27:33;3.10;;;2.80;;
79128;SDS011;68529;43.286;23.360;2024-02-14T03:29:59;3.23;;;2.93;;
79128;SDS011;68529;43.286;23.360;2024-02-14T03:32:27;3.97;;;3.23;;
79128;SDS011;68529;43.286;23.360;2024-02-14T03:34:52;6.40;;;5.87;;
79128;SDS011;68529;43.286;23.360;2024-02-14T03:37:18;4.00;;;3.60;;
79128;SDS011;68529;43.286;23.360;2024-02-14T03:39:43;3.50;;;3.20;;
79128;SDS011;68529;43.286;23.360;2024-02-14T03:42:10;4.10;;;3.27;;
79128;SDS011;68529;43.286;23.360;2024-02-14T03:44:36;10.90;;;8.90;;
79128;SDS011;68529;43.286;23.360;2024-02-14T03:47:03;9.50;;;8.57;;
79128;SDS011;68529;43.286;23.360;2024-02-14T03:49:29;5.33;;;3.90;;
79128;SDS011;68529;43.286;23.360;2024-02-14T03:51:55;4.53;;;4.17;;
79128;SDS011;68529;43.286;23.360;2024-02-14T03:54:21;5.63;;;5.13;;
79128;SDS011;68529;43.286;23.360;2024-02-14T03:56:47;3.90;;;3.50;;
79128;SDS011;68529;43.286;23.360;2024-02-14T03:59:12;3.07;;;2.87;;
79128;SDS011;68529;43.286;23.360;2024-02-14T04:01:43;3.50;;;3.20;;
79128;SDS011;68529;43.286;23.360;2024-02-14T04:04:10;4.30;;;3.70;;
79128;SDS011;68529;43.286;23.360;2024-02-14T04:06:35;3.97;;;3.67;;
79128;SDS011;68529;43.286;23.360;2024-02-14T04:09:00;6.83;;;6.13;;
79128;SDS011;68529;43.286;23.360;2024-02-14T04:11:26;4.30;;;3.90;;
79128;SDS011;68529;43.286;23.360;2024-02-14T04:13:51;3.87;;;3.57;;
79128;SDS011;68529;43.286;23.360;2024-02-14T04:16:20;5.23;;;4.20;;
79128;SDS011;68529;43.286;23.360;2024-02-14T04:18:46;9.20;;;7.13;;
79128;SDS011;68529;43.286;23.360;2024-02-14T04:21:11;6.80;;;5.37;;
79128;SDS011;68529;43.286;23.360;2024-02-14T04:23:37;4.07;;;3.77;;
79128;SDS011;68529;43.286;23.360;2024-02-14T04:26:02;3.37;;;3.07;;
79128;SDS011;68529;43.286;23.360;2024-02-14T04:28:28;3.30;;;3.00;;
79128;SDS011;68529;43.286;23.360;2024-02-14T04:30:53;5.13;;;3.87;;
79128;SDS011;68529;43.286;23.360;2024-02-14T04:33:20;3.80;;;3.40;;
79128;SDS011;68529;43.286;23.360;2024-02-14T04:35:46;4.00;;;3.40;;
79128;SDS011;68529;43.286;23.360;2024-02-14T04:38:12;5.00;;;4.43;;
79128;SDS011;68529;43.286;23.360;2024-02-14T04:40:37;12.83;;;8.00;;
79128;SDS011;68529;43.286;23.360;2024-02-14T04:43:03;9.90;;;7.63;;
79128;SDS011;68529;43.286;23.360;2024-02-14T04:45:29;14.60;;;8.97;;
79128;SDS011;68529;43.286;23.360;2024-02-14T04:47:54;12.33;;;8.60;;
79128;SDS011;68529;43.286;23.360;2024-02-14T04:50:20;14.37;;;8.47;;
79128;SDS011;68529;43.286;23.360;2024-02-14T04:52:45;10.70;;;7.23;;
79128;SDS011;68529;43.286;23.360;2024-02-14T04:55:10;3.97;;;3.67;;
79128;SDS011;68529;43.286;23.360;2024-02-14T04:57:36;4.33;;;3.77;;
79128;SDS011;68529;43.286;23.360;2024-02-14T05:00:02;4.10;;;3.70;;
79128;SDS011;68529;43.286;23.360;2024-02-14T05:02:29;3.50;;;3.20;;
79128;SDS011;68529;43.286;23.360;2024-02-14T05:04:55;3.87;;;3.40;;
79128;SDS011;68529;43.286;23.360;2024-02-14T05:07:20;4.53;;;4.13;;
79128;SDS011;68529;43.286;23.360;2024-02-14T05:09:45;6.60;;;4.47;;
79128;SDS011;68529;43.286;23.360;2024-02-14T05:12:13;5.37;;;4.43;;
79128;SDS011;68529;43.286;23.360;2024-02-14T05:14:38;3.90;;;3.50;;
79128;SDS011;68529;43.286;23.360;2024-02-14T05:17:05;4.80;;;4.30;;
79128;SDS011;68529;43.286;23.360;2024-02-14T05:19:31;4.07;;;3.77;;
79128;SDS011;68529;43.286;23.360;2024-02-14T05:21:57;4.97;;;4.30;;
79128;SDS011;68529;43.286;23.360;2024-02-14T05:24:22;6.20;;;5.30;;
79128;SDS011;68529;43.286;23.360;2024-02-14T05:26:47;7.53;;;6.73;;
79128;SDS011;68529;43.286;23.360;2024-02-14T05:29:14;4.60;;;4.20;;
79128;SDS011;68529;43.286;23.360;2024-02-14T05:31:43;5.27;;;4.77;;
79128;SDS011;68529;43.286;23.360;2024-02-14T05:34:09;4.90;;;4.50;;
79128;SDS011;68529;43.286;23.360;2024-02-14T05:36:35;4.30;;;4.00;;
79128;SDS011;68529;43.286;23.360;2024-02-14T05:39:01;5.50;;;4.50;;
79128;SDS011;68529;43.286;23.360;2024-02-14T05:41:27;3.57;;;3.27;;
79128;SDS011;68529;43.286;23.360;2024-02-14T05:43:52;4.27;;;3.87;;
79128;SDS011;68529;43.286;23.360;2024-02-14T05:46:18;4.80;;;4.30;;
79128;SDS011;68529;43.286;23.360;2024-02-14T05:48:45;5.40;;;4.13;;
79128;SDS011;68529;43.286;23.360;2024-02-14T05:51:11;5.50;;;4.93;;
79128;SDS011;68529;43.286;23.360;2024-02-14T05:53:36;6.87;;;6.17;;
79128;SDS011;68529;43.286;23.360;2024-02-14T05:56:01;4.63;;;4.23;;
79128;SDS011;68529;43.286;23.360;2024-02-14T05:58:27;4.10;;;3.70;;
79128;SDS011;68529;43.286;23.360;2024-02-14T06:00:53;4.77;;;3.87;;
79128;SDS011;68529;43.286;23.360;2024-02-14T06:03:20;4.70;;;4.30;;
79128;SDS011;68529;43.286;23.360;2024-02-14T06:05:46;5.87;;;5.20;;
79128;SDS011;68529;43.286;23.360;2024-02-14T06:08:11;4.97;;;4.00;;
79128;SDS011;68529;43.286;23.360;2024-02-14T06:10:37;5.30;;;4.57;;
79128;SDS011;68529;43.286;23.360;2024-02-14T06:13:04;7.60;;;6.90;;
79128;SDS011;68529;43.286;23.360;2024-02-14T06:15:29;6.27;;;5.50;;
79128;SDS011;68529;43.286;23.360;2024-02-14T06:17:55;6.97;;;6.37;;
79128;SDS011;68529;43.286;23.360;2024-02-14T06:20:20;4.80;;;4.40;;
79128;SDS011;68529;43.286;23.360;2024-02-14T06:22:46;3.53;;;3.23;;
79128;SDS011;68529;43.286;23.360;2024-02-14T06:25:11;3.97;;;3.67;;
79128;SDS011;68529;43.286;23.360;2024-02-14T06:27:36;3.37;;;3.10;;
79128;SDS011;68529;43.286;23.360;2024-02-14T06:30:02;4.67;;;4.23;;
79128;SDS011;68529;43.286;23.360;2024-02-14T06:32:28;3.93;;;3.60;;
79128;SDS011;68529;43.286;23.360;2024-02-14T06:34:54;3.47;;;3.17;;
79128;SDS011;68529;43.286;23.360;2024-02-14T06:37:19;5.03;;;3.70;;
79128;SDS011;68529;43.286;23.360;2024-02-14T06:39:45;4.10;;;3.80;;
79128;SDS011;68529;43.286;23.360;2024-02-14T06:42:10;6.73;;;4.17;;
79128;SDS011;68529;43.286;23.360;2024-02-14T06:44:36;4.27;;;3.57;;
79128;SDS011;68529;43.286;23.360;2024-02-14T06:47:01;3.73;;;3.40;;
79128;SDS011;68529;43.286;23.360;2024-02-14T06:49:26;3.73;;;3.43;;
79128;SDS011;68529;43.286;23.360;2024-02-14T06:51:52;4.23;;;3.83;;
79128;SDS011;68529;43.286;23.360;2024-02-14T06:54:17;4.10;;;3.80;;
79128;SDS011;68529;43.286;23.360;2024-02-14T06:56:44;4.37;;;3.70;;
79128;SDS011;68529;43.286;23.360;2024-02-14T06:59:10;9.83;;;7.97;;
79128;SDS011;68529;43.286;23.360;2024-02-14T07:01:35;12.97;;;9.50;;
79128;SDS011;68529;43.286;23.360;2024-02-14T07:04:00;9.77;;;8.53;;
79128;SDS011;68529;43.286;23.360;2024-02-14T07:06:26;15.27;;;12.93;;
79128;SDS011;68529;43.286;23.360;2024-02-14T07:08:52;11.37;;;8.83;;
79128;SDS011;68529;43.286;23.360;2024-02-14T07:11:18;15.17;;;10.40;;
79128;SDS011;68529;43.286;23.360;2024-02-14T07:13:43;15.60;;;11.23;;
79128;SDS011;68529;43.286;23.360;2024-02-14T07:16:09;14.67;;;9.97;;
79128;SDS011;68529;43.286;23.360;2024-02-14T07:18:34;26.47;;;10.43;;
79128;SDS011;68529;43.286;23.360;2024-02-14T07:21:00;8.53;;;5.60;;
79128;SDS011;68529;43.286;23.360;2024-02-14T07:23:26;15.57;;;7.40;;
79128;SDS011;68529;43.286;23.360;2024-02-14T07:25:52;14.73;;;9.53;;
79128;SDS011;68529;43.286;23.360;2024-02-14T07:28:17;16.67;;;12.10;;
79128;SDS011;68529;43.286;23.360;2024-02-14T07:30:43;40.27;;;23.07;;
79128;SDS011;68529;43.286;23.360;2024-02-14T07:33:09;34.03;;;22.73;;
79128;SDS011;68529;43.286;23.360;2024-02-14T07:35:34;17.80;;;11.10;;
79128;SDS011;68529;43.286;23.360;2024-02-14T07:38:01;15.47;;;12.50;;
79128;SDS011;68529;43.286;23.360;2024-02-14T07:40:27;16.20;;;10.73;;
79128;SDS011;68529;43.286;23.360;2024-02-14T07:42:55;14.23;;;10.10;;
79128;SDS011;68529;43.286;23.360;2024-02-14T07:45:21;13.57;;;10.70;;
79128;SDS011;68529;43.286;23.360;2024-02-14T07:47:46;15.10;;;11.13;;
79128;SDS011;68529;43.286;23.360;2024-02-14T07:50:14;11.70;;;8.67;;
79128;SDS011;68529;43.286;23.360;2024-02-14T07:52:41;13.03;;;9.70;;
79128;SDS011;68529;43.286;23.360;2024-02-14T07:55:08;13.50;;;9.63;;
79128;SDS011;68529;43.286;23.360;2024-02-14T07:57:37;44.03;;;11.57;;
79128;SDS011;68529;43.286;23.360;2024-02-14T08:00:02;17.03;;;8.63;;
79128;SDS011;68529;43.286;23.360;2024-02-14T08:02:28;8.97;;;6.63;;
79128;SDS011;68529;43.286;23.360;2024-02-14T08:04:54;16.13;;;10.07;;
79128;SDS011;68529;43.286;23.360;2024-02-14T08:07:19;36.53;;;19.40;;
79128;SDS011;68529;43.286;23.360;2024-02-14T08:09:45;55.67;;;27.83;;
79128;SDS011;68529;43.286;23.360;2024-02-14T08:12:10;34.43;;;18.20;;
79128;SDS011;68529;43.286;23.360;2024-02-14T08:14:35;7.97;;;5.80;;
79128;SDS011;68529;43.286;23.360;2024-02-14T08:17:01;25.77;;;14.17;;
79128;SDS011;68529;43.286;23.360;2024-02-14T08:19:27;9.97;;;6.50;;
79128;SDS011;68529;43.286;23.360;2024-02-14T08:21:52;7.83;;;4.97;;
79128;SDS011;68529;43.286;23.360;2024-02-14T08:24:23;9.23;;;6.00;;
79128;SDS011;68529;43.286;23.360;2024-02-14T08:26:51;20.63;;;10.57;;
79128;SDS011;68529;43.286;23.360;2024-02-14T08:29:17;15.93;;;8.20;;
79128;SDS011;68529;43.286;23.360;2024-02-14T08:31:43;13.90;;;7.87;;
79128;SDS011;68529;43.286;23.360;2024-02-14T08:34:08;7.67;;;5.60;;
79128;SDS011;68529;43.286;23.360;2024-02-14T08:36:34;6.87;;;5.00;;
79128;SDS011;68529;43.286;23.360;2024-02-14T08:39:06;9.97;;;6.10;;
79128;SDS011;68529;43.286;23.360;2024-02-14T08:41:31;14.93;;;8.87;;
79128;SDS011;68529;43.286;23.360;2024-02-14T08:43:57;15.63;;;8.87;;
79128;SDS011;68529;43.286;23.360;2024-02-14T08:46:22;17.27;;;11.27;;
79128;SDS011;68529;43.286;23.360;2024-02-14T08:48:48;19.63;;;9.87;;
79128;SDS011;68529;43.286;23.360;2024-02-14T08:51:14;4.93;;;3.50;;
79128;SDS011;68529;43.286;23.360;2024-02-14T08:53:40;4.43;;;3.23;;
79128;SDS011;68529;43.286;23.360;2024-02-14T08:56:09;3.13;;;2.77;;
79128;SDS011;68529;43.286;23.360;2024-02-14T08:58:35;3.20;;;2.90;;
79128;SDS011;68529;43.286;23.360;2024-02-14T09:01:01;6.93;;;6.03;;
79128;SDS011;68529;43.286;23.360;2024-02-14T09:03:26;4.53;;;2.97;;
79128;SDS011;68529;43.286;23.360;2024-02-14T09:05:51;13.13;;;7.13;;
79128;SDS011;68529;43.286;23.360;2024-02-14T09:08:18;11.93;;;6.53;;
79128;SDS011;68529;43.286;23.360;2024-02-14T09:10:45;17.07;;;10.13;;
79128;SDS011;68529;43.286;23.360;2024-02-14T09:13:11;7.83;;;5.30;;
79128;SDS011;68529;43.286;23.360;2024-02-14T09:15:36;5.20;;;3.80;;
79128;SDS011;68529;43.286;23.360;2024-02-14T09:18:02;4.57;;;3.17;;
79128;SDS011;68529;43.286;23.360;2024-02-14T09:20:28;4.70;;;4.10;;
79128;SDS011;68529;43.286;23.360;2024-02-14T09:22:55;3.13;;;2.83;;
79128;SDS011;68529;43.286;23.360;2024-02-14T09:25:20;5.33;;;2.70;;
79128;SDS011;68529;43.286;23.360;2024-02-14T09:27:48;3.50;;;2.63;;
79128;SDS011;68529;43.286;23.360;2024-02-14T09:30:14;3.57;;;2.83;;
79128;SDS011;68529;43.286;23.360;2024-02-14T09:32:42;3.57;;;3.27;;
79128;SDS011;68529;43.286;23.360;2024-02-14T09:35:08;3.50;;;3.20;;
79128;SDS011;68529;43.286;23.360;2024-02-14T09:37:33;4.00;;;3.33;;
79128;SDS011;68529;43.286;23.360;2024-02-14T09:39:58;5.07;;;3.07;;
79128;SDS011;68529;43.286;23.360;2024-02-14T09:42:27;4.97;;;3.47;;
79128;SDS011;68529;43.286;23.360;2024-02-14T09:44:59;3.40;;;3.10;;
79128;SDS011;68529;43.286;23.360;2024-02-14T09:47:25;7.50;;;5.33;;
79128;SDS011;68529;43.286;23.360;2024-02-14T09:49:53;5.40;;;4.10;;
79128;SDS011;68529;43.286;23.360;2024-02-14T09:52:18;5.93;;;4.07;;
79128;SDS011;68529;43.286;23.360;2024-02-14T09:54:47;16.83;;;8.60;;
79128;SDS011;68529;43.286;23.360;2024-02-14T09:57:13;6.07;;;3.47;;
79128;SDS011;68529;43.286;23.360;2024-02-14T09:59:41;6.30;;;4.97;;
79128;SDS011;68529;43.286;23.360;2024-02-14T10:02:08;18.20;;;11.17;;
79128;SDS011;68529;43.286;23.360;2024-02-14T10:04:35;19.40;;;13.33;;
79128;SDS011;68529;43.286;23.360;2024-02-14T10:07:02;4.93;;;3.53;;
79128;SDS011;68529;43.286;23.360;2024-02-14T10:09:29;3.57;;;3.27;;
79128;SDS011;68529;43.286;23.360;2024-02-14T10:11:55;2.67;;;2.47;;
79128;SDS011;68529;43.286;23.360;2024-02-14T10:14:22;6.07;;;3.10;;
79128;SDS011;68529;43.286;23.360;2024-02-14T10:16:48;4.60;;;4.20;;
79128;SDS011;68529;43.286;23.360;2024-02-14T10:19:17;4.07;;;3.30;;
79128;SDS011;68529;43.286;23.360;2024-02-14T10:21:43;3.47;;;3.17;;
79128;SDS011;68529;43.286;23.360;2024-02-14T10:24:08;2.83;;;2.60;;
79128;SDS011;68529;43.286;23.360;2024-02-14T10:26:35;3.37;;;3.07;;
79128;SDS011;68529;43.286;23.360;2024-02-14T10:29:01;4.03;;;3.43;;
79128;SDS011;68529;43.286;23.360;2024-02-14T10:31:27;3.90;;;3.50;;
79128;SDS011;68529;43.286;23.360;2024-02-14T10:33:55;2.50;;;2.30;;
79128;SDS011;68529;43.286;23.360;2024-02-14T10:36:21;4.43;;;2.70;;
79128;SDS011;68529;43.286;23.360;2024-02-14T10:38:47;4.10;;;3.70;;
79128;SDS011;68529;43.286;23.360;2024-02-14T10:41:15;4.47;;;2.70;;
79128;SDS011;68529;43.286;23.360;2024-02-14T10:43:41;4.30;;;3.07;;
79128;SDS011;68529;43.286;23.360;2024-02-14T10:46:08;3.43;;;3.13;;
79128;SDS011;68529;43.286;23.360;2024-02-14T10:48:40;2.70;;;2.50;;
79128;SDS011;68529;43.286;23.360;2024-02-14T10:51:08;3.10;;;2.80;;
79128;SDS011;68529;43.286;23.360;2024-02-14T10:53:35;6.10;;;5.20;;
79128;SDS011;68529;43.286;23.360;2024-02-14T10:56:07;3.30;;;3.00;;
79128;SDS011;68529;43.286;23.360;2024-02-14T10:58:33;4.13;;;3.13;;
79128;SDS011;68529;43.286;23.360;2024-02-14T11:01:00;2.63;;;2.43;;
79128;SDS011;68529;43.286;23.360;2024-02-14T11:03:26;3.17;;;2.27;;
79128;SDS011;68529;43.286;23.360;2024-02-14T11:05:54;3.33;;;3.03;;
79128;SDS011;68529;43.286;23.360;2024-02-14T11:08:25;3.70;;;3.33;;
79128;SDS011;68529;43.286;23.360;2024-02-14T11:10:54;3.30;;;3.00;;
79128;SDS011;68529;43.286;23.360;2024-02-14T11:13:21;2.90;;;2.60;;
79128;SDS011;68529;43.286;23.360;2024-02-14T11:15:46;2.50;;;2.30;;
79128;SDS011;68529;43.286;23.360;2024-02-14T11:18:12;3.87;;;2.77;;
79128;SDS011;68529;43.286;23.360;2024-02-14T11:20:37;3.67;;;3.37;;
79128;SDS011;68529;43.286;23.360;2024-02-14T11:23:05;3.33;;;3.07;;
79128;SDS011;68529;43.286;23.360;2024-02-14T11:25:36;3.17;;;2.43;;
79128;SDS011;68529;43.286;23.360;2024-02-14T11:30:40;2.93;;;2.73;;
79128;SDS011;68529;43.286;23.360;2024-02-14T11:35:40;6.23;;;5.30;;
79128;SDS011;68529;43.286;23.360;2024-02-14T11:38:07;3.60;;;3.30;;
79128;SDS011;68529;43.286;23.360;2024-02-14T11:40:34;3.03;;;2.83;;
79128;SDS011;68529;43.286;23.360;2024-02-14T11:42:59;3.23;;;2.93;;
79128;SDS011;68529;43.286;23.360;2024-02-14T11:45:26;4.13;;;3.80;;
79128;SDS011;68529;43.286;23.360;2024-02-14T11:47:52;5.67;;;5.17;;
79128;SDS011;68529;43.286;23.360;2024-02-14T11:50:17;4.40;;;4.00;;
79128;SDS011;68529;43.286;23.360;2024-02-14T11:52:43;5.50;;;5.00;;
79128;SDS011;68529;43.286;23.360;2024-02-14T11:55:09;10.20;;;9.30;;
79128;SDS011;68529;43.286;23.360;2024-02-14T11:57:35;3.93;;;3.53;;
79128;SDS011;68529;43.286;23.360;2024-02-14T12:00:01;3.80;;;3.40;;
79128;SDS011;68529;43.286;23.360;2024-02-14T12:02:26;3.43;;;3.13;;
79128;SDS011;68529;43.286;23.360;2024-02-14T12:04:53;5.37;;;3.43;;
79128;SDS011;68529;43.286;23.360;2024-02-14T12:07:20;3.30;;;2.80;;
79128;SDS011;68529;43.286;23.360;2024-02-14T12:09:47;3.80;;;3.50;;
79128;SDS011;68529;43.286;23.360;2024-02-14T12:12:14;3.90;;;3.60;;
79128;SDS011;68529;43.286;23.360;2024-02-14T12:14:40;7.40;;;6.17;;
79128;SDS011;68529;43.286;23.360;2024-02-14T12:17:08;8.07;;;6.53;;
79128;SDS011;68529;43.286;23.360;2024-02-14T12:19:35;13.80;;;8.13;;
79128;SDS011;68529;43.286;23.360;2024-02-14T12:22:02;7.07;;;6.37;;
79128;SDS011;68529;43.286;23.360;2024-02-14T12:24:36;8.33;;;7.33;;
79128;SDS011;68529;43.286;23.360;2024-02-14T12:27:04;7.17;;;6.47;;
79128;SDS011;68529;43.286;23.360;2024-02-14T12:29:29;6.83;;;6.10;;
79128;SDS011;68529;43.286;23.360;2024-02-14T12:32:07;8.30;;;7.40;;
79128;SDS011;68529;43.286;23.360;2024-02-14T12:34:33;6.70;;;5.90;;
79128;SDS011;68529;43.286;23.360;2024-02-14T12:36:59;6.07;;;5.40;;
79128;SDS011;68529;43.286;23.360;2024-02-14T12:39:28;3.40;;;3.10;;
79128;SDS011;68529;43.286;23.360;2024-02-14T12:41:54;3.67;;;3.30;;
79128;SDS011;68529;43.286;23.360;2024-02-14T12:44:20;3.53;;;2.90;;
79128;SDS011;68529;43.286;23.360;2024-02-14T12:46:45;3.37;;;3.13;;
79128;SDS011;68529;43.286;23.360;2024-02-14T12:49:11;5.07;;;3.03;;
79128;SDS011;68529;43.286;23.360;2024-02-14T12:51:36;3.50;;;3.20;;
79128;SDS011;68529;43.286;23.360;2024-02-14T12:54:03;3.70;;;3.40;;
79128;SDS011;68529;43.286;23.360;2024-02-14T12:56:29;3.63;;;3.33;;
79128;SDS011;68529;43.286;23.360;2024-02-14T12:58:54;4.00;;;3.60;;
79128;SDS011;68529;43.286;23.360;2024-02-14T13:01:20;3.97;;;3.13;;
79128;SDS011;68529;43.286;23.360;2024-02-14T13:03:45;2.97;;;2.67;;
79128;SDS011;68529;43.286;23.360;2024-02-14T13:06:11;3.73;;;3.30;;
79128;SDS011;68529;43.286;23.360;2024-02-14T13:08:36;3.40;;;3.10;;
79128;SDS011;68529;43.286;23.360;2024-02-14T13:11:04;5.17;;;4.03;;
79128;SDS011;68529;43.286;23.360;2024-02-14T13:13:30;4.20;;;3.60;;
79128;SDS011;68529;43.286;23.360;2024-02-14T13:15:55;5.13;;;4.40;;
79128;SDS011;68529;43.286;23.360;2024-02-14T13:18:21;12.47;;;10.27;;
79128;SDS011;68529;43.286;23.360;2024-02-14T13:20:46;4.47;;;4.07;;
79128;SDS011;68529;43.286;23.360;2024-02-14T13:23:12;4.50;;;4.10;;
79128;SDS011;68529;43.286;23.360;2024-02-14T13:25:39;3.60;;;3.30;;
79128;SDS011;68529;43.286;23.360;2024-02-14T13:28:04;3.87;;;3.50;;
79128;SDS011;68529;43.286;23.360;2024-02-14T13:30:31;5.43;;;4.83;;
79128;SDS011;68529;43.286;23.360;2024-02-14T13:32:56;4.50;;;4.03;;
79128;SDS011;68529;43.286;23.360;2024-02-14T13:35:22;10.00;;;6.97;;
79128;SDS011;68529;43.286;23.360;2024-02-14T13:37:48;8.93;;;7.93;;
79128;SDS011;68529;43.286;23.360;2024-02-14T13:40:14;6.27;;;5.67;;
79128;SDS011;68529;43.286;23.360;2024-02-14T13:42:39;9.43;;;7.77;;
79128;SDS011;68529;43.286;23.360;2024-02-14T13:45:05;6.63;;;5.67;;
79128;SDS011;68529;43.286;23.360;2024-02-14T13:47:41;4.60;;;4.20;;
79128;SDS011;68529;43.286;23.360;2024-02-14T13:50:09;6.30;;;5.70;;
79128;SDS011;68529;43.286;23.360;2024-02-14T13:52:35;3.70;;;3.10;;
79128;SDS011;68529;43.286;23.360;2024-02-14T13:55:04;4.20;;;3.80;;
79128;SDS011;68529;43.286;23.360;2024-02-14T13:57:38;3.13;;;2.50;;
79128;SDS011;68529;43.286;23.360;2024-02-14T14:00:04;3.73;;;3.27;;
79128;SDS011;68529;43.286;23.360;2024-02-14T14:02:30;3.80;;;3.10;;
79128;SDS011;68529;43.286;23.360;2024-02-14T14:04:56;4.13;;;3.70;;
79128;SDS011;68529;43.286;23.360;2024-02-14T14:07:21;5.73;;;4.67;;
79128;SDS011;68529;43.286;23.360;2024-02-14T14:09:48;7.77;;;5.83;;
79128;SDS011;68529;43.286;23.360;2024-02-14T14:12:14;5.50;;;5.00;;
79128;SDS011;68529;43.286;23.360;2024-02-14T14:14:39;8.43;;;6.33;;
79128;SDS011;68529;43.286;23.360;2024-02-14T14:17:05;6.23;;;5.63;;
79128;SDS011;68529;43.286;23.360;2024-02-14T14:19:30;5.30;;;4.80;;
79128;SDS011;68529;43.286;23.360;2024-02-14T14:21:55;7.00;;;5.17;;
79128;SDS011;68529;43.286;23.360;2024-02-14T14:24:22;9.80;;;7.10;;
79128;SDS011;68529;43.286;23.360;2024-02-14T14:26:48;5.87;;;4.20;;
79128;SDS011;68529;43.286;23.360;2024-02-14T14:29:15;8.20;;;5.50;;